Asteria — WDE5489 — position and weather

sailwx.info

Track history (hours):
 
Tides and Currents Weather Stations Pressure Air Temp Water Temp Dewpoint Dewpoint Depression Visibility Wind Speed Wind Dir Waves Ship Positions

Asteria

Owner: Boston HarborCruises, Boston, MA. More information available from US FCC via Universal Licensing System and Coast Guard Vessel Documentation Center.

Last reported at 2015-Aug-25 12:13 UTC. Time now 2015-Aug-30 14:04 UTC.
Position N 42°21' W 071°01'.

Length 33 m; draft 2 m.

Type: High speed craft. MMSI: 367367470.

Date/timePositionNaut miles runAvg speedWind from/ knotsBaromVisibWave heightAir tempDewpointWater temp
2015-Aug-25 12:13N 42°21' W 071°01'7 6.7
2015-Aug-25 11:14N 42°16' W 070°55'810.0
2015-Aug-25 10:29N 42°21' W 071°02'8 7.7
2015-Aug-25 09:25N 42°15' W 070°55'0 0.0
2015-Aug-25 00:32N 42°15' W 070°55'1 0.0
2015-Aug-23 01:32N 42°17' W 070°56'8 7.6
2015-Aug-23 00:30N 42°24' W 070°53'7 7.2
2015-Aug-22 23:30N 42°31' W 070°53'12 5.8
2015-Aug-22 21:24N 42°21' W 071°01'1212.5
2015-Aug-22 20:26N 42°31' W 070°53'12 3.0
2015-Aug-22 16:26N 42°19' W 070°55'3 3.4
2015-Aug-22 15:33N 42°20' W 070°59'6 2.5
2015-Aug-22 13:19N 42°15' W 070°55'810.0
2015-Aug-22 12:29N 42°22' W 071°03'3 3.6
2015-Aug-22 11:32N 42°20' W 070°58'2 0.1
2015-Aug-21 15:20N 42°20' W 070°56'4 1.4
2015-Aug-21 12:10N 42°21' W 071°02'1 0.0
2015-Aug-20 23:10N 42°21' W 071°03'812.6
2015-Aug-20 22:31N 42°15' W 070°55'7 6.9
2015-Aug-20 21:29N 42°21' W 071°01'1 0.9
2015-Aug-20 20:07N 42°22' W 071°02'3 3.9
2015-Aug-20 19:26N 42°19' W 071°01'3 3.1
2015-Aug-20 18:31N 42°22' W 071°03'0 0.1
2015-Aug-20 14:32N 42°22' W 071°02'4 4.2
2015-Aug-20 13:32N 42°20' W 070°57'4 1.3
2015-Aug-20 10:25N 42°21' W 071°02'0 0.0
2015-Aug-19 23:11N 42°21' W 071°03'0 0.3
2015-Aug-19 21:29N 42°21' W 071°02'1 0.4
2015-Aug-19 19:31N 42°22' W 071°03'0 0.0
2015-Aug-18 18:33N 42°22' W 071°03'0 0.0
2015-Aug-18 14:33N 42°22' W 071°03'0 0.0
2015-Aug-17 19:04N 42°22' W 071°02'0 0.1
2015-Aug-17 14:26N 42°22' W 071°03'0 0.2
2015-Aug-17 13:28N 42°22' W 071°03'6 4.8
2015-Aug-17 12:16N 42°19' W 070°56'6 0.5
2015-Aug-17 00:27N 42°22' W 071°03'0 0.0
2015-Aug-16 20:17N 42°22' W 071°03'0 0.2
2015-Aug-16 19:34N 42°22' W 071°03'0 0.0
2015-Aug-16 15:20N 42°22' W 071°03'0 0.4
2015-Aug-16 14:33N 42°22' W 071°02'0 0.0
2015-Aug-16 13:25N 42°22' W 071°02'0 0.3
2015-Aug-16 12:25N 42°22' W 071°03'0 0.0
2015-Aug-15 15:15N 42°22' W 071°03'  
Track history (hours):
 
Tides and Currents Weather Stations Pressure Air Temp Water Temp Dewpoint Dewpoint Depression Visibility Wind Speed Wind Dir Waves Ship Positions

Asteria

Owner: Boston HarborCruises, Boston, MA. More information available from US FCC via Universal Licensing System and Coast Guard Vessel Documentation Center.

Last reported at 2015-Aug-25 12:13 UTC. Time now 2015-Aug-30 14:04 UTC.
Position N 42°21' W 071°01'.

Length 33 m; draft 2 m.

Type: High speed craft. MMSI: 367367470.

Date/timePositionNaut miles runAvg speedWind from/ knotsBaromVisibWave heightAir tempDewpointWater temp
2015-Aug-25 12:13N 42°21' W 071°01'7 6.7
2015-Aug-25 11:14N 42°16' W 070°55'810.0
2015-Aug-25 10:29N 42°21' W 071°02'8 7.7
2015-Aug-25 09:25N 42°15' W 070°55'0 0.0
2015-Aug-25 00:32N 42°15' W 070°55'1 0.0
2015-Aug-23 01:32N 42°17' W 070°56'8 7.6
2015-Aug-23 00:30N 42°24' W 070°53'7 7.2
2015-Aug-22 23:30N 42°31' W 070°53'12 5.8
2015-Aug-22 21:24N 42°21' W 071°01'1212.5
2015-Aug-22 20:26N 42°31' W 070°53'12 3.0
2015-Aug-22 16:26N 42°19' W 070°55'3 3.4
2015-Aug-22 15:33N 42°20' W 070°59'6 2.5
2015-Aug-22 13:19N 42°15' W 070°55'810.0
2015-Aug-22 12:29N 42°22' W 071°03'3 3.6
2015-Aug-22 11:32N 42°20' W 070°58'2 0.1
2015-Aug-21 15:20N 42°20' W 070°56'4 1.4
2015-Aug-21 12:10N 42°21' W 071°02'1 0.0
2015-Aug-20 23:10N 42°21' W 071°03'812.6
2015-Aug-20 22:31N 42°15' W 070°55'7 6.9
2015-Aug-20 21:29N 42°21' W 071°01'1 0.9
2015-Aug-20 20:07N 42°22' W 071°02'3 3.9
2015-Aug-20 19:26N 42°19' W 071°01'3 3.1
2015-Aug-20 18:31N 42°22' W 071°03'0 0.1
2015-Aug-20 14:32N 42°22' W 071°02'4 4.2
2015-Aug-20 13:32N 42°20' W 070°57'4 1.3
2015-Aug-20 10:25N 42°21' W 071°02'0 0.0
2015-Aug-19 23:11N 42°21' W 071°03'0 0.3
2015-Aug-19 21:29N 42°21' W 071°02'1 0.4
2015-Aug-19 19:31N 42°22' W 071°03'0 0.0
2015-Aug-18 18:33N 42°22' W 071°03'0 0.0
2015-Aug-18 14:33N 42°22' W 071°03'0 0.0
2015-Aug-17 19:04N 42°22' W 071°02'0 0.1
2015-Aug-17 14:26N 42°22' W 071°03'0 0.2
2015-Aug-17 13:28N 42°22' W 071°03'6 4.8
2015-Aug-17 12:16N 42°19' W 070°56'6 0.5
2015-Aug-17 00:27N 42°22' W 071°03'0 0.0
2015-Aug-16 20:17N 42°22' W 071°03'0 0.2
2015-Aug-16 19:34N 42°22' W 071°03'0 0.0
2015-Aug-16 15:20N 42°22' W 071°03'0 0.4
2015-Aug-16 14:33N 42°22' W 071°02'0 0.0
2015-Aug-16 13:25N 42°22' W 071°02'0 0.3
2015-Aug-16 12:25N 42°22' W 071°03'0 0.0
2015-Aug-15 15:15N 42°22' W 071°03'  

Dump ship's entire track history